Time;durP1;ratioP1;P1;durP2;ratioP2;P2;SDS_P1;SDS_P2;PMS_P1;PMS_P2;Temp;Humidity;BMP_temperature;BMP_pressure;BME280_temperature;BME280_humidity;BME280_pressure;Samples;Min_cycle;Max_cycle;Signal;HPM_P1;HPM_P2
2022/01/07 00:01:27;;;;;;;3.08;2.30;;;22.10;42.40;;;;;;5044798;28;43483;-67
2022/01/07 00:03:55;;;;;;;3.95;2.40;;;22.10;42.40;;;;;;5088255;27;43954;-66
2022/01/07 00:06:22;;;;;;;3.13;2.00;;;22.10;42.40;;;;;;5042903;28;44504;-65
2022/01/07 00:08:50;;;;;;;2.63;2.30;;;22.10;42.50;;;;;;5043880;28;43586;-66
2022/01/07 00:11:17;;;;;;;3.10;2.22;;;22.10;42.40;;;;;;5077049;28;43553;-66
2022/01/07 00:13:45;;;;;;;3.42;2.20;;;22.10;42.40;;;;;;5043969;28;44201;-68
2022/01/07 00:16:13;;;;;;;4.30;2.55;;;22.10;42.50;;;;;;5076444;28;43454;-66
2022/01/07 00:18:43;;;;;;;3.50;2.42;;;22.10;42.40;;;;;;5041669;28;43922;-68
2022/01/07 00:21:14;;;;;;;4.00;2.35;;;22.10;42.50;;;;;;5077093;28;43488;-67
2022/01/07 00:23:41;;;;;;;4.07;2.50;;;22.00;42.40;;;;;;5042936;28;45277;-66
2022/01/07 00:26:09;;;;;;;2.75;2.20;;;22.00;43.10;;;;;;5044023;28;43394;-68
2022/01/07 00:28:36;;;;;;;3.47;2.30;;;22.00;42.50;;;;;;5077622;28;44024;-68
2022/01/07 00:31:04;;;;;;;4.15;2.42;;;22.00;42.50;;;;;;5076595;28;43464;-66
2022/01/07 00:33:31;;;;;;;2.55;2.22;;;21.90;42.30;;;;;;5077349;28;44684;-68
2022/01/07 00:35:59;;;;;;;2.97;2.15;;;21.90;42.40;;;;;;5042590;28;43555;-68
2022/01/07 00:38:29;;;;;;;2.75;2.35;;;21.90;42.40;;;;;;5043618;28;43454;-66
2022/01/07 00:40:57;;;;;;;3.23;2.37;;;21.90;42.30;;;;;;5076754;28;43507;-67
2022/01/07 00:43:24;;;;;;;4.00;2.28;;;21.90;42.40;;;;;;5043544;28;43889;-66
2022/01/07 00:45:52;;;;;;;3.47;2.50;;;21.90;42.40;;;;;;5043743;28;43424;-66
2022/01/07 00:48:19;;;;;;;2.88;2.15;;;21.90;42.40;;;;;;5043325;28;43474;-66
2022/01/07 00:50:48;;;;;;;3.03;2.50;;;21.80;42.40;;;;;;5042579;28;43510;-68
2022/01/07 00:53:16;;;;;;;2.75;2.20;;;21.80;42.40;;;;;;5043219;28;43929;-67
2022/01/07 00:55:44;;;;;;;2.50;2.28;;;21.80;42.40;;;;;;5043678;28;43494;-65
2022/01/07 00:58:11;;;;;;;2.83;2.45;;;21.80;42.40;;;;;;5072722;28;43422;-66
2022/01/07 01:00:39;;;;;;;2.70;2.17;;;21.80;42.50;;;;;;5059507;28;43510;-68
2022/01/07 01:03:06;;;;;;;3.72;2.53;;;21.80;42.50;;;;;;5076416;28;44234;-66
2022/01/07 01:05:35;;;;;;;3.33;2.33;;;21.70;42.40;;;;;;5076387;28;43953;-65
2022/01/07 01:08:03;;;;;;;3.28;2.40;;;21.80;42.40;;;;;;5076085;28;43460;-69
2022/01/07 01:10:31;;;;;;;3.75;2.42;;;21.70;42.40;;;;;;5076343;28;43556;-67
2022/01/07 01:12:58;;;;;;;3.25;2.20;;;21.70;42.30;;;;;;5076091;28;45997;-68
2022/01/07 01:15:27;;;;;;;3.67;2.10;;;21.70;42.40;;;;;;5042097;28;43413;-67
2022/01/07 01:17:57;;;;;;;4.40;2.40;;;21.70;42.40;;;;;;5042507;28;43443;-68
2022/01/07 01:20:25;;;;;;;2.70;2.50;;;21.70;42.40;;;;;;5075416;28;43433;-66
2022/01/07 01:22:53;;;;;;;2.40;2.20;;;21.60;42.30;;;;;;5042264;28;43928;-68
2022/01/07 01:25:20;;;;;;;2.63;2.22;;;21.60;42.40;;;;;;5044107;28;43420;-68
2022/01/07 01:27:48;;;;;;;3.17;2.38;;;21.60;42.40;;;;;;5076321;28;43433;-65
2022/01/07 01:30:17;;;;;;;3.20;2.10;;;21.60;42.40;;;;;;5042840;28;43470;-68
2022/01/07 01:32:47;;;;;;;4.15;2.80;;;21.60;42.50;;;;;;5075803;28;44143;-67
2022/01/07 01:35:16;;;;;;;2.97;2.05;;;21.60;42.50;;;;;;5074747;28;43419;-68
2022/01/07 01:37:44;;;;;;;3.85;2.65;;;21.60;42.50;;;;;;5043036;28;43945;-68
2022/01/07 01:40:12;;;;;;;2.78;2.20;;;21.50;42.40;;;;;;5076629;28;43554;-68
2022/01/07 01:42:39;;;;;;;3.40;2.30;;;21.50;42.50;;;;;;5075448;28;45137;-66
2022/01/07 01:45:09;;;;;;;2.92;2.28;;;21.50;42.50;;;;;;5042087;28;44264;-66
2022/01/07 01:47:37;;;;;;;3.00;2.30;;;21.50;42.50;;;;;;5040056;28;43403;-67
2022/01/07 01:50:06;;;;;;;3.60;2.20;;;21.50;42.50;;;;;;5042560;28;43601;-67
2022/01/07 01:52:34;;;;;;;2.40;2.20;;;21.50;42.50;;;;;;5075571;28;43913;-68
2022/01/07 01:55:04;;;;;;;2.60;2.17;;;21.50;42.60;;;;;;5041663;28;43455;-67
2022/01/07 01:57:32;;;;;;;2.50;2.20;;;21.40;42.60;;;;;;5075903;28;43541;-66
2022/01/07 01:59:59;;;;;;;3.67;2.40;;;21.40;42.60;;;;;;5043631;28;43487;-66
2022/01/07 02:02:27;;;;;;;3.67;2.30;;;21.40;42.60;;;;;;5075274;28;46265;-67
2022/01/07 02:04:56;;;;;;;3.85;2.47;;;21.40;42.60;;;;;;5074899;28;43427;-66
2022/01/07 02:07:26;;;;;;;2.75;2.42;;;21.40;42.60;;;;;;5041283;28;43474;-68
2022/01/07 02:09:55;;;;;;;2.80;2.50;;;21.40;42.60;;;;;;5041883;28;43557;-69
2022/01/07 02:12:22;;;;;;;2.50;2.30;;;21.40;42.70;;;;;;5042445;28;43624;-69
2022/01/07 02:14:52;;;;;;;2.35;2.10;;;21.40;42.70;;;;;;5041417;28;43480;-68
2022/01/07 02:17:20;;;;;;;3.22;2.20;;;21.30;42.70;;;;;;5041329;28;43428;-69
2022/01/07 02:19:49;;;;;;;3.13;2.28;;;21.30;42.70;;;;;;5025647;28;44073;-67
2022/01/07 02:22:17;;;;;;;2.65;2.25;;;21.30;42.80;;;;;;5041302;28;44050;-65
2022/01/07 02:24:47;;;;;;;3.53;2.40;;;21.30;42.80;;;;;;5076025;28;43451;-65
2022/01/07 02:27:17;;;;;;;3.30;2.38;;;21.30;42.80;;;;;;5075110;28;43513;-69
2022/01/07 02:29:49;;;;;;;2.65;2.38;;;21.20;42.80;;;;;;5075385;28;43648;-66
2022/01/07 02:32:17;;;;;;;3.08;2.30;;;21.20;42.80;;;;;;5039812;28;43634;-68
2022/01/07 02:34:46;;;;;;;3.28;2.50;;;21.20;42.90;;;;;;5041900;28;43586;-68
2022/01/07 02:37:14;;;;;;;2.80;2.33;;;21.20;42.90;;;;;;5041051;28;43558;-66
2022/01/07 02:39:42;;;;;;;2.65;2.20;;;21.20;42.90;;;;;;5076046;28;43459;-69
2022/01/07 02:42:10;;;;;;;2.72;2.30;;;21.20;42.80;;;;;;5074869;28;43821;-68
2022/01/07 02:44:37;;;;;;;2.78;2.22;;;21.20;42.90;;;;;;5043161;28;43427;-66
2022/01/07 02:47:05;;;;;;;2.40;2.20;;;21.20;42.90;;;;;;5074564;28;43476;-68
2022/01/07 02:49:33;;;;;;;2.83;2.40;;;21.20;42.90;;;;;;5044311;28;43481;-67
2022/01/07 02:52:00;;;;;;;3.72;2.30;;;21.10;42.90;;;;;;5078587;28;44221;-68
2022/01/07 02:54:31;;;;;;;2.58;2.30;;;21.10;42.90;;;;;;5038851;28;44425;-68
2022/01/07 02:56:58;;;;;;;2.58;2.00;;;21.10;42.90;;;;;;5076989;28;43492;-68
2022/01/07 02:59:26;;;;;;;3.58;2.25;;;21.10;42.90;;;;;;5078768;28;43643;-69
2022/01/07 03:01:53;;;;;;;2.85;2.47;;;21.10;42.90;;;;;;5074291;28;43947;-67
2022/01/07 03:04:23;;;;;;;3.03;2.28;;;21.10;42.90;;;;;;5078284;28;44047;-69
2022/01/07 03:06:50;;;;;;;2.50;2.20;;;21.10;42.90;;;;;;5068473;28;43424;-66
2022/01/07 03:09:18;;;;;;;3.22;2.45;;;21.10;42.90;;;;;;5045015;28;43562;-67
2022/01/07 03:11:46;;;;;;;3.13;2.30;;;21.10;43.00;;;;;;5041591;28;43620;-69
2022/01/07 03:14:13;;;;;;;2.60;2.38;;;21.00;42.90;;;;;;5078372;27;44441;-67
2022/01/07 03:16:41;;;;;;;2.45;1.92;;;21.00;43.00;;;;;;5078259;28;43454;-68
2022/01/07 03:19:09;;;;;;;2.67;2.20;;;21.00;42.90;;;;;;5045772;28;43551;-70
2022/01/07 03:21:37;;;;;;;2.20;2.00;;;21.00;43.00;;;;;;5043199;28;44684;-68
2022/01/07 03:24:04;;;;;;;3.80;2.45;;;21.00;43.00;;;;;;5078280;28;44940;-68
2022/01/07 03:26:32;;;;;;;2.60;2.22;;;21.00;43.00;;;;;;5077723;28;43474;-67
2022/01/07 03:28:59;;;;;;;2.20;2.00;;;20.90;43.00;;;;;;5078021;28;43476;-66
2022/01/07 03:31:27;;;;;;;2.30;2.10;;;20.90;42.90;;;;;;5041895;28;43916;-66
2022/01/07 03:33:54;;;;;;;2.30;2.10;;;20.90;43.00;;;;;;5078256;28;43389;-69
2022/01/07 03:36:22;;;;;;;2.40;2.20;;;20.90;43.00;;;;;;5027178;28;43463;-66
2022/01/07 03:38:49;;;;;;;2.55;1.95;;;20.90;43.00;;;;;;5077949;28;43582;-67
2022/01/07 03:41:17;;;;;;;2.85;2.15;;;20.90;43.10;;;;;;5076480;28;45751;-68
2022/01/07 03:43:44;;;;;;;2.65;2.00;;;20.90;43.10;;;;;;5077622;28;43586;-68
2022/01/07 03:46:12;;;;;;;3.05;2.17;;;20.90;43.10;;;;;;5077773;28;43431;-67
2022/01/07 03:48:39;;;;;;;2.17;1.98;;;20.90;43.10;;;;;;5043771;28;43454;-67
2022/01/07 03:51:07;;;;;;;2.00;1.90;;;20.80;43.10;;;;;;5076960;28;43957;-68
2022/01/07 03:53:34;;;;;;;3.47;2.28;;;20.80;43.10;;;;;;5027041;28;44277;-70
2022/01/07 03:56:02;;;;;;;2.40;2.10;;;20.80;43.10;;;;;;5077420;28;43459;-66
2022/01/07 03:58:31;;;;;;;2.42;2.10;;;20.80;43.10;;;;;;5077137;28;43534;-68
2022/01/07 04:00:58;;;;;;;2.45;2.25;;;20.80;43.10;;;;;;5076387;28;43910;-69
2022/01/07 04:03:26;;;;;;;2.60;2.40;;;20.80;43.10;;;;;;5045174;28;43599;-67
2022/01/07 04:05:53;;;;;;;2.47;2.10;;;20.80;43.10;;;;;;5077887;28;43475;-70
2022/01/07 04:08:21;;;;;;;2.75;2.00;;;20.80;43.10;;;;;;5077411;28;43460;-66
2022/01/07 04:10:49;;;;;;;2.15;1.95;;;20.70;43.10;;;;;;5043829;28;45343;-70
2022/01/07 04:13:17;;;;;;;1.98;1.80;;;20.70;43.10;;;;;;5060927;28;43445;-68
2022/01/07 04:15:44;;;;;;;2.00;1.90;;;20.70;43.10;;;;;;5043877;28;43402;-70
2022/01/07 04:18:12;;;;;;;2.50;2.00;;;20.70;43.70;;;;;;5026658;28;43424;-68
2022/01/07 04:20:39;;;;;;;1.90;1.80;;;20.70;43.00;;;;;;5043656;28;45659;-68
2022/01/07 04:23:08;;;;;;;2.25;2.05;;;20.70;43.50;;;;;;5076983;28;43463;-69
2022/01/07 04:25:37;;;;;;;2.28;2.08;;;20.70;43.10;;;;;;5043533;28;43466;-68
2022/01/07 04:28:06;;;;;;;2.67;2.38;;;20.70;43.10;;;;;;5041460;28;43399;-69
2022/01/07 04:30:40;;;;;;;2.53;2.33;;;20.60;43.00;;;;;;5089460;27;43963;-67
2022/01/07 04:33:10;;;;;;;2.30;2.10;;;20.70;43.10;;;;;;5075805;28;43475;-68
2022/01/07 04:35:39;;;;;;;2.28;2.00;;;20.60;43.10;;;;;;5077324;28;43444;-69
2022/01/07 04:38:07;;;;;;;2.30;2.10;;;20.60;43.10;;;;;;5042900;28;43483;-68
2022/01/07 04:40:35;;;;;;;2.67;2.10;;;20.60;43.10;;;;;;5076086;28;45821;-66
2022/01/07 04:43:04;;;;;;;3.03;2.30;;;20.60;43.20;;;;;;5037929;28;43449;-69
2022/01/07 04:45:31;;;;;;;3.13;2.53;;;20.60;43.20;;;;;;5077021;28;43437;-69
2022/01/07 04:47:59;;;;;;;2.20;2.00;;;20.50;43.10;;;;;;5075774;28;43461;-67
2022/01/07 04:50:27;;;;;;;2.15;2.00;;;20.60;43.10;;;;;;5075707;28;43931;-69
2022/01/07 04:52:55;;;;;;;1.90;1.73;;;20.60;43.10;;;;;;5073739;28;44831;-68
2022/01/07 04:55:35;;;;;;;2.10;1.90;;;20.60;43.10;;;;;;5025874;28;43432;-67
2022/01/07 04:58:09;;;;;;;2.30;2.10;;;20.50;43.10;;;;;;5073085;28;43941;-68
2022/01/07 05:00:37;;;;;;;2.60;2.05;;;20.50;43.20;;;;;;5075542;28;43924;-67
2022/01/07 05:03:05;;;;;;;2.30;2.10;;;20.50;43.20;;;;;;5042733;28;43502;-67
2022/01/07 05:05:33;;;;;;;2.10;1.90;;;20.50;43.20;;;;;;5040649;28;43467;-69
2022/01/07 05:08:02;;;;;;;2.38;2.08;;;20.40;43.10;;;;;;5042979;28;43444;-69
2022/01/07 05:10:30;;;;;;;2.00;1.90;;;20.40;43.20;;;;;;5075685;28;44618;-67
2022/01/07 05:12:57;;;;;;;2.28;2.08;;;20.40;43.20;;;;;;5076710;28;43758;-68
2022/01/07 05:15:25;;;;;;;2.10;2.00;;;20.40;43.20;;;;;;5041505;28;43463;-67
2022/01/07 05:17:52;;;;;;;2.22;2.00;;;20.40;43.20;;;;;;5076512;28;43527;-66
2022/01/07 05:20:20;;;;;;;2.47;1.83;;;20.40;43.10;;;;;;5042961;28;43945;-66
2022/01/07 05:22:48;;;;;;;2.40;1.95;;;20.40;43.20;;;;;;5043806;28;43371;-69
2022/01/07 05:25:16;;;;;;;2.42;1.98;;;20.40;43.20;;;;;;5075973;28;43496;-67
2022/01/07 05:27:44;;;;;;;2.33;2.13;;;20.30;43.10;;;;;;5076450;28;43506;-66
2022/01/07 05:30:12;;;;;;;2.22;2.03;;;20.30;43.10;;;;;;5076250;28;43943;-68
2022/01/07 05:32:40;;;;;;;2.40;2.20;;;20.40;43.20;;;;;;5076005;28;43518;-68
2022/01/07 05:35:09;;;;;;;2.15;1.90;;;20.30;43.10;;;;;;5043941;28;43476;-67
2022/01/07 05:37:38;;;;;;;2.20;1.83;;;20.30;43.10;;;;;;5042393;28;43615;-67
2022/01/07 05:40:06;;;;;;;2.28;2.08;;;20.30;43.20;;;;;;5043910;28;43564;-67
2022/01/07 05:42:33;;;;;;;2.28;2.00;;;20.30;43.20;;;;;;5075895;28;44881;-66
2022/01/07 05:45:01;;;;;;;2.40;2.05;;;20.30;43.20;;;;;;5076607;28;43491;-68
2022/01/07 05:47:28;;;;;;;2.00;1.90;;;20.30;43.20;;;;;;5043429;28;43360;-66
2022/01/07 05:49:56;;;;;;;2.20;2.00;;;20.20;43.20;;;;;;5075383;28;44194;-69
2022/01/07 05:52:23;;;;;;;2.45;2.25;;;20.20;43.20;;;;;;5075713;28;43546;-67
2022/01/07 05:54:51;;;;;;;2.28;1.85;;;20.20;43.20;;;;;;5042362;28;43515;-67
2022/01/07 05:57:18;;;;;;;2.80;2.20;;;20.20;43.20;;;;;;5075904;28;43411;-66
2022/01/07 05:59:45;;;;;;;1.90;1.80;;;20.20;43.20;;;;;;5041977;28;45250;-67
2022/01/07 06:02:13;;;;;;;2.10;2.00;;;20.20;43.20;;;;;;5042106;28;43494;-65
2022/01/07 06:04:45;;;;;;;2.83;2.10;;;20.20;43.20;;;;;;5076069;28;43443;-68
2022/01/07 06:07:13;;;;;;;2.42;2.15;;;20.20;43.20;;;;;;5076132;28;43975;-66
2022/01/07 06:09:40;;;;;;;2.65;1.85;;;20.10;43.20;;;;;;5041757;28;44667;-68
2022/01/07 06:12:09;;;;;;;2.80;1.98;;;20.10;43.20;;;;;;5075664;28;43534;-67
2022/01/07 06:14:37;;;;;;;2.40;2.20;;;20.10;43.20;;;;;;5044282;28;43596;-67
2022/01/07 06:17:08;;;;;;;2.20;2.00;;;20.10;43.30;;;;;;5041928;28;43492;-67
2022/01/07 06:19:35;;;;;;;2.00;1.90;;;20.10;43.30;;;;;;5075114;28;45291;-69
2022/01/07 06:22:07;;;;;;;2.13;1.92;;;20.10;43.30;;;;;;5025711;28;44062;-69
2022/01/07 06:24:35;;;;;;;2.13;2.03;;;20.10;43.30;;;;;;5028403;28;43439;-66
2022/01/07 06:27:03;;;;;;;2.40;2.20;;;20.10;43.30;;;;;;5078647;28;43535;-66
2022/01/07 06:29:30;;;;;;;2.58;2.38;;;20.00;43.30;;;;;;5069296;28;44620;-68
2022/01/07 06:31:58;;;;;;;2.33;2.13;;;20.00;43.30;;;;;;5046495;28;43413;-69
2022/01/07 06:34:25;;;;;;;2.08;1.95;;;20.00;43.30;;;;;;5046297;28;43466;-67
2022/01/07 06:36:53;;;;;;;2.20;2.10;;;20.00;43.30;;;;;;5045374;28;43508;-68
2022/01/07 06:39:22;;;;;;;2.42;2.08;;;20.00;43.30;;;;;;5077252;28;45347;-69
2022/01/07 06:41:51;;;;;;;2.15;1.98;;;20.00;43.30;;;;;;5078641;28;44391;-68
2022/01/07 06:44:18;;;;;;;2.20;2.00;;;20.00;43.30;;;;;;5058839;28;43564;-68
2022/01/07 06:46:46;;;;;;;2.20;2.00;;;20.00;43.30;;;;;;5042520;28;43628;-70
2022/01/07 06:49:13;;;;;;;2.28;2.08;;;20.00;43.30;;;;;;5078483;28;43967;-70
2022/01/07 06:51:41;;;;;;;2.30;2.10;;;20.00;43.40;;;;;;5044911;28;43492;-68
2022/01/07 06:54:11;;;;;;;2.33;2.10;;;19.90;43.40;;;;;;5043630;28;43481;-70
2022/01/07 06:56:39;;;;;;;2.38;2.17;;;20.00;43.40;;;;;;5028476;28;43441;-69
2022/01/07 06:59:07;;;;;;;2.13;2.00;;;19.90;43.40;;;;;;5078757;28;43903;-70
2022/01/07 07:01:35;;;;;;;2.33;2.00;;;19.90;43.40;;;;;;5076478;28;44376;-69
2022/01/07 07:04:03;;;;;;;2.38;2.17;;;19.90;43.40;;;;;;5027851;28;43461;-66
2022/01/07 07:06:30;;;;;;;2.28;2.15;;;19.90;43.40;;;;;;5044766;28;43487;-69
2022/01/07 07:08:58;;;;;;;2.15;2.05;;;19.90;43.50;;;;;;5077638;28;46131;-67
2022/01/07 07:11:26;;;;;;;2.20;2.03;;;19.90;43.50;;;;;;5059142;28;44291;-69
2022/01/07 07:13:54;;;;;;;2.25;1.92;;;19.90;43.60;;;;;;5070471;28;43445;-68
2022/01/07 07:16:21;;;;;;;2.30;2.10;;;19.80;43.60;;;;;;5044946;28;43560;-70
2022/01/07 07:18:50;;;;;;;2.10;1.90;;;19.80;43.60;;;;;;5078255;28;45813;-70
2022/01/07 07:21:18;;;;;;;1.73;1.60;;;19.80;43.60;;;;;;5078849;28;44835;-69
2022/01/07 07:23:48;;;;;;;2.25;2.05;;;19.90;43.70;;;;;;5078508;28;43472;-70
2022/01/07 07:26:15;;;;;;;1.88;1.77;;;19.80;43.60;;;;;;5077741;28;43530;-69
2022/01/07 07:28:45;;;;;;;2.50;2.25;;;19.80;43.70;;;;;;5061504;28;43804;-70
2022/01/07 07:31:15;;;;;;;1.92;1.83;;;19.80;43.70;;;;;;5078204;28;44377;-72
2022/01/07 07:36:27;;;;;;;2.10;1.80;;;19.80;43.80;;;;;;5077872;28;43509;-69
2022/01/07 07:39:00;;;;;;;1.90;1.80;;;19.90;44.50;;;;;;5078671;28;45694;-69
2022/01/07 07:41:29;;;;;;;1.90;1.80;;;19.80;43.80;;;;;;5070377;28;45006;-67
2022/01/07 07:43:57;;;;;;;1.98;1.88;;;19.80;43.80;;;;;;5077958;28;43506;-67
2022/01/07 07:46:27;;;;;;;2.20;2.00;;;19.80;43.80;;;;;;5077931;28;43494;-69
2022/01/07 07:48:54;;;;;;;1.80;1.70;;;19.80;43.70;;;;;;5078058;28;43929;-69
2022/01/07 07:51:22;;;;;;;2.03;1.92;;;19.90;43.80;;;;;;5077587;28;43581;-68
2022/01/07 07:53:49;;;;;;;2.53;2.33;;;19.80;43.70;;;;;;5076570;28;43434;-68
2022/01/07 07:56:17;;;;;;;2.75;2.00;;;19.90;43.80;;;;;;5075819;28;43586;-66
2022/01/07 07:58:45;;;;;;;1.92;1.83;;;19.90;43.80;;;;;;5042093;28;43589;-69
2022/01/07 08:01:13;;;;;;;2.10;2.00;;;19.90;43.80;;;;;;5058730;28;44421;-69
2022/01/07 08:03:41;;;;;;;2.22;2.03;;;19.90;43.80;;;;;;5072851;28;43491;-67
2022/01/07 08:06:09;;;;;;;2.25;2.00;;;19.90;43.70;;;;;;5074910;28;43503;-67
2022/01/07 08:08:37;;;;;;;2.55;2.35;;;19.90;43.70;;;;;;5076337;28;43922;-68
2022/01/07 08:11:06;;;;;;;2.03;1.88;;;19.90;43.70;;;;;;5057939;28;44391;-68
2022/01/07 08:16:23;;;;;;;2.33;2.13;;;19.90;43.70;;;;;;5040814;28;44041;-69
2022/01/07 08:18:53;;;;;;;2.30;2.10;;;19.90;43.70;;;;;;5043221;28;43813;-67
2022/01/07 08:21:26;;;;;;;2.42;2.20;;;19.90;43.70;;;;;;5077109;28;43463;-67
2022/01/07 08:23:55;;;;;;;2.58;2.38;;;19.90;43.70;;;;;;5077445;28;43525;-68
2022/01/07 08:26:23;;;;;;;3.17;2.25;;;19.90;43.80;;;;;;5076776;28;43523;-67
2022/01/07 08:28:55;;;;;;;2.22;2.03;;;19.90;43.80;;;;;;5077428;28;45586;-69
2022/01/07 08:34:53;;;;;;;2.30;2.10;;;19.90;43.70;;;;;;5074833;28;45009;-69
2022/01/07 08:37:00;;;;;;;2.42;2.15;;;19.90;43.80;;;;;;5041403;28;43468;-69
2022/01/07 08:39:28;;;;;;;2.30;2.10;;;20.00;43.80;;;;;;5074663;28;45350;-67
2022/01/07 08:41:55;;;;;;;2.30;2.10;;;20.00;43.80;;;;;;5072070;28;43497;-69
2022/01/07 08:44:25;;;;;;;2.22;2.00;;;20.00;43.80;;;;;;5073373;28;43448;-65
2022/01/07 08:46:53;;;;;;;2.58;2.22;;;20.00;44.50;;;;;;5075557;27;43540;-64
2022/01/07 08:49:21;;;;;;;5.65;2.90;;;20.00;44.00;;;;;;5076137;28;43904;-67
2022/01/07 08:51:48;;;;;;;13.77;4.00;;;20.00;44.10;;;;;;5041150;28;43509;-66
2022/01/07 08:54:17;;;;;;;15.80;4.45;;;20.10;44.20;;;;;;5075045;28;43477;-67
2022/01/07 08:56:44;;;;;;;5.97;2.90;;;20.10;44.40;;;;;;5075151;28;43478;-65
2022/01/07 08:59:12;;;;;;;7.55;2.90;;;20.20;44.30;;;;;;5073984;28;43917;-65
2022/01/07 09:01:39;;;;;;;5.00;2.47;;;20.30;44.30;;;;;;5074156;28;44774;-65
2022/01/07 09:04:07;;;;;;;7.38;2.95;;;20.40;44.10;;;;;;5041345;28;43524;-65
2022/01/07 09:06:35;;;;;;;4.47;2.63;;;20.50;43.90;;;;;;5074795;28;44041;-65
2022/01/07 09:09:03;;;;;;;4.55;2.63;;;20.60;43.70;;;;;;5024087;28;44763;-65
2022/01/07 09:11:30;;;;;;;5.72;2.60;;;20.80;43.70;;;;;;5074656;28;43409;-67
2022/01/07 09:13:58;;;;;;;3.60;2.25;;;20.90;43.50;;;;;;5041155;28;43523;-64
2022/01/07 09:16:26;;;;;;;4.57;2.28;;;21.10;43.30;;;;;;5074227;28;43574;-64
2022/01/07 09:18:54;;;;;;;10.57;4.80;;;21.20;43.30;;;;;;5041937;28;44912;-63
2022/01/07 09:21:21;;;;;;;10.50;7.10;;;21.30;43.20;;;;;;5041781;28;43686;-61
2022/01/07 09:23:49;;;;;;;6.15;5.55;;;21.50;43.10;;;;;;5042227;28;43542;-61
2022/01/07 09:26:17;;;;;;;7.13;5.57;;;21.60;43.00;;;;;;5039943;28;43563;-66
2022/01/07 09:28:44;;;;;;;6.03;4.63;;;21.70;42.60;;;;;;5072389;28;43948;-64
2022/01/07 09:31:13;;;;;;;8.90;5.13;;;21.90;42.50;;;;;;5041973;28;43436;-64
2022/01/07 09:33:41;;;;;;;6.57;4.72;;;22.00;42.50;;;;;;5042544;28;43503;-63
2022/01/07 09:36:23;;;;;;;6.35;4.60;;;22.10;42.30;;;;;;5073708;28;43621;-61
2022/01/07 09:38:51;;;;;;;6.45;4.22;;;22.20;42.20;;;;;;5042014;28;43560;-66
2022/01/07 09:41:18;;;;;;;6.22;4.18;;;22.30;42.10;;;;;;5073116;28;44406;-65
2022/01/07 09:43:46;;;;;;;6.47;3.90;;;22.40;41.90;;;;;;5071335;28;43422;-66
2022/01/07 09:46:15;;;;;;;4.82;4.10;;;22.50;41.90;;;;;;5072774;28;43728;-65
2022/01/07 09:48:42;;;;;;;6.25;3.80;;;22.50;41.80;;;;;;5040752;28;45650;-65
2022/01/07 09:51:11;;;;;;;5.70;3.50;;;22.60;41.80;;;;;;5074193;28;44459;-64
2022/01/07 09:53:39;;;;;;;5.13;3.45;;;22.70;41.60;;;;;;5057293;28;43490;-65
2022/01/07 09:56:06;;;;;;;4.55;3.35;;;22.70;41.60;;;;;;5040756;28;43495;-68
2022/01/07 09:58:35;;;;;;;4.85;3.33;;;22.80;41.50;;;;;;5042079;28;43559;-66
2022/01/07 10:01:09;;;;;;;4.32;3.28;;;22.90;41.40;;;;;;5060510;28;43534;-67
2022/01/07 10:03:42;;;;;;;5.20;3.17;;;23.00;41.40;;;;;;5077926;28;43502;-66
2022/01/07 10:06:26;;;;;;;4.13;3.05;;;23.10;41.60;;;;;;5043349;28;43337;-67
2022/01/07 10:09:10;;;;;;;4.75;3.00;;;23.10;41.50;;;;;;5077050;28;45358;-66
2022/01/07 10:11:38;;;;;;;3.60;2.78;;;23.20;41.20;;;;;;5040742;28;43522;-65
2022/01/07 10:14:25;;;;;;;3.08;2.78;;;23.20;40.90;;;;;;5043172;28;44385;-66
2022/01/07 10:17:00;;;;;;;3.10;2.80;;;23.30;41.00;;;;;;5077907;28;43459;-66
2022/01/07 10:19:40;;;;;;;3.70;2.47;;;23.30;41.00;;;;;;5043339;28;44186;-65
2022/01/07 10:22:11;;;;;;;4.10;2.67;;;23.40;41.00;;;;;;5043502;28;43448;-65
2022/01/07 10:24:53;;;;;;;5.30;2.63;;;23.40;41.00;;;;;;5077251;28;43538;-65
2022/01/07 10:27:21;;;;;;;2.75;2.50;;;23.50;41.10;;;;;;5075590;28;43510;-65
2022/01/07 10:29:49;;;;;;;4.28;2.40;;;23.50;41.00;;;;;;5077691;28;44013;-66
2022/01/07 10:32:29;;;;;;;3.55;2.80;;;23.50;40.80;;;;;;5077318;28;44925;-67
2022/01/07 10:35:10;;;;;;;4.13;2.80;;;23.50;40.90;;;;;;5077306;28;43482;-67
2022/01/07 10:38:01;;;;;;;2.97;2.30;;;23.50;40.80;;;;;;5090618;27;43534;-66
2022/01/07 10:40:37;;;;;;;3.88;2.63;;;23.50;40.90;;;;;;5073728;28;43903;-66
2022/01/07 10:43:15;;;;;;;3.10;2.20;;;23.50;40.80;;;;;;5043227;28;43536;-68
2022/01/07 10:45:52;;;;;;;3.22;2.15;;;23.50;41.10;;;;;;5036253;28;43530;-67
2022/01/07 10:48:23;;;;;;;2.40;2.10;;;23.50;41.10;;;;;;5027414;28;43495;-66
2022/01/07 10:50:53;;;;;;;2.38;2.17;;;23.60;41.10;;;;;;5043217;28;45336;-68
2022/01/07 10:53:29;;;;;;;2.20;2.00;;;23.60;41.00;;;;;;5043103;28;43431;-67
2022/01/07 10:56:05;;;;;;;2.15;1.95;;;23.60;40.90;;;;;;5036370;28;43457;-67
2022/01/07 10:58:55;;;;;;;3.15;2.20;;;23.60;41.10;;;;;;5038436;28;43618;-67
2022/01/07 11:01:28;;;;;;;2.55;1.92;;;23.60;40.90;;;;;;5025050;28;43919;-66
2022/01/07 11:03:58;;;;;;;2.58;1.98;;;23.60;41.00;;;;;;5076748;28;43545;-69
2022/01/07 11:06:28;;;;;;;3.10;2.80;;;23.60;40.90;;;;;;5019529;28;43459;-66
2022/01/07 11:08:57;;;;;;;3.13;2.80;;;23.60;41.20;;;;;;5053611;28;43599;-66
2022/01/07 11:11:28;;;;;;;3.20;2.90;;;23.60;41.80;;;;;;5042113;28;45819;-67
2022/01/07 11:14:07;;;;;;;3.58;2.97;;;23.60;41.20;;;;;;5074008;28;44444;-67
2022/01/07 11:16:38;;;;;;;3.63;2.97;;;23.60;41.20;;;;;;5040187;28;43498;-66
2022/01/07 11:19:08;;;;;;;2.95;2.65;;;23.60;41.20;;;;;;5091293;27;43632;-67
2022/01/07 11:21:37;;;;;;;2.83;2.60;;;23.50;41.10;;;;;;5075769;28;44104;-67
2022/01/07 11:24:35;;;;;;;3.13;2.90;;;23.50;41.10;;;;;;5042685;28;43956;-67
2022/01/07 11:27:26;;;;;;;3.22;2.80;;;23.50;41.10;;;;;;5024956;28;43485;-67
2022/01/07 11:30:02;;;;;;;3.40;3.00;;;23.50;41.20;;;;;;5072433;28;43527;-67
2022/01/07 11:32:36;;;;;;;3.25;2.95;;;23.50;41.40;;;;;;5075632;28;43920;-65
2022/01/07 11:35:19;;;;;;;3.13;2.83;;;23.50;41.30;;;;;;5040552;28;44920;-67
2022/01/07 11:37:54;;;;;;;3.00;2.80;;;23.50;41.40;;;;;;5040845;28;43486;-66
2022/01/07 11:40:31;;;;;;;3.50;3.10;;;23.50;41.40;;;;;;5075145;28;43502;-66
2022/01/07 11:43:04;;;;;;;3.60;2.72;;;23.50;42.00;;;;;;5041390;28;44052;-67
2022/01/07 11:45:35;;;;;;;4.25;2.85;;;23.50;41.60;;;;;;5071691;28;43536;-65
2022/01/07 11:48:13;;;;;;;3.20;2.90;;;23.50;41.50;;;;;;5057355;28;43418;-66
2022/01/07 11:50:59;;;;;;;3.22;2.80;;;23.50;41.30;;;;;;5040864;28;43459;-66
2022/01/07 11:53:36;;;;;;;3.97;2.70;;;23.50;41.40;;;;;;5059333;28;46127;-65
2022/01/07 11:56:05;;;;;;;2.88;2.67;;;23.50;41.40;;;;;;5041065;28;43489;-65
2022/01/07 11:58:55;;;;;;;2.72;2.53;;;23.50;41.50;;;;;;5074302;28;43489;-66
2022/01/07 12:01:24;;;;;;;2.72;2.47;;;23.40;41.50;;;;;;5043293;28;43507;-65
2022/01/07 12:03:53;;;;;;;2.55;2.35;;;23.40;41.70;;;;;;5042511;28;44028;-64
2022/01/07 12:06:27;;;;;;;2.70;2.50;;;23.40;41.60;;;;;;5073407;28;43533;-66
2022/01/07 12:11:31;;;;;;;3.00;2.65;;;23.40;41.50;;;;;;5074632;28;43423;-66
2022/01/07 12:13:58;;;;;;;2.85;2.38;;;23.40;41.50;;;;;;5043189;28;43592;-66
2022/01/07 12:16:31;;;;;;;3.15;2.38;;;23.40;41.50;;;;;;5071102;28;44964;-64
2022/01/07 12:19:36;;;;;;;2.92;2.50;;;23.40;41.50;;;;;;5041288;28;43593;-64
2022/01/07 12:22:16;;;;;;;2.95;2.53;;;23.40;41.60;;;;;;5041318;28;43516;-66
2022/01/07 12:24:49;;;;;;;2.20;2.00;;;23.40;41.70;;;;;;5040613;28;44022;-67
2022/01/07 12:27:20;;;;;;;2.50;2.30;;;23.40;41.60;;;;;;5038241;28;43637;-68
2022/01/07 12:29:50;;;;;;;2.30;2.13;;;23.40;41.60;;;;;;5041707;28;43451;-64
2022/01/07 12:32:18;;;;;;;4.60;2.30;;;23.40;41.60;;;;;;5074116;28;43477;-66
2022/01/07 12:34:48;;;;;;;2.53;2.33;;;23.40;41.80;;;;;;5042287;28;44737;-68
2022/01/07 12:37:21;;;;;;;2.83;2.38;;;23.40;41.70;;;;;;5041219;28;43804;-65
2022/01/07 12:39:52;;;;;;;2.83;2.40;;;23.40;41.80;;;;;;5074659;28;43454;-67
2022/01/07 12:42:19;;;;;;;2.42;2.22;;;23.40;41.70;;;;;;5075082;28;43477;-65
2022/01/07 12:44:52;;;;;;;2.40;2.17;;;23.40;41.80;;;;;;5040813;28;43990;-68
2022/01/07 12:47:38;;;;;;;2.33;2.13;;;23.40;41.90;;;;;;5038331;28;43398;-67
2022/01/07 12:50:06;;;;;;;3.20;2.28;;;23.40;42.00;;;;;;5042404;28;43608;-67
2022/01/07 12:52:41;;;;;;;3.22;2.30;;;23.40;41.80;;;;;;5073863;28;43484;-68
2022/01/07 12:55:18;;;;;;;2.53;2.33;;;23.40;41.80;;;;;;5071774;28;43929;-67
2022/01/07 12:57:50;;;;;;;2.35;2.05;;;23.40;41.80;;;;;;5040946;28;43491;-67
2022/01/07 13:00:25;;;;;;;2.70;2.00;;;23.40;42.00;;;;;;5074483;28;43435;-65
2022/01/07 13:02:59;;;;;;;2.13;1.92;;;23.40;42.10;;;;;;5073297;28;43527;-68
2022/01/07 13:05:34;;;;;;;2.67;2.15;;;23.40;41.90;;;;;;5040927;28;44188;-68
2022/01/07 13:08:08;;;;;;;2.88;2.22;;;23.40;41.90;;;;;;5064170;28;43420;-68
2022/01/07 13:10:38;;;;;;;2.58;2.17;;;23.40;41.90;;;;;;5072598;28;43494;-68